Time;durP1;ratioP1;P1;durP2;ratioP2;P2;SDS_P1;SDS_P2;PMS_P1;PMS_P2;Temp;Humidity;BMP_temperature;BMP_pressure;BME280_temperature;BME280_humidity;BME280_pressure;Samples;Min_cycle;Max_cycle;Signal;HPM_P1;HPM_P2
2023/03/10 00:00:04;;;;;;;;;;;6.40;99.90;;;;;;5111346;28;19911;-70
2023/03/10 00:02:32;;;;;;;;;;;6.40;99.90;;;;;;5111588;28;19908;-70
2023/03/10 00:04:57;;;;;;;;;;;6.40;99.90;;;;;;5102481;28;19912;-70
2023/03/10 00:07:23;;;;;;;;;;;6.40;99.90;;;;;;5074901;28;20031;-70
2023/03/10 00:09:48;;;;;;;;;;;6.50;99.90;;;;;;5083260;28;19919;-70
2023/03/10 00:12:14;;;;;;;;;;;6.50;99.90;;;;;;5078034;28;19962;-70
2023/03/10 00:14:39;;;;;;;;;;;6.50;99.90;;;;;;5076417;28;19958;-70
2023/03/10 00:17:05;;;;;;;;;;;6.50;99.90;;;;;;5090289;28;19977;-70
2023/03/10 00:19:31;;;;;;;;;;;6.50;99.90;;;;;;5090664;28;19915;-70
2023/03/10 00:21:56;;;;;;;;;;;6.50;99.90;;;;;;5091686;28;19998;-70
2023/03/10 00:24:22;;;;;;;;;;;6.50;99.90;;;;;;5096608;28;19965;-70
2023/03/10 00:26:48;;;;;;;;;;;6.60;99.90;;;;;;5090506;28;19963;-70
2023/03/10 00:29:14;;;;;;;;;;;6.60;99.90;;;;;;5090296;28;19912;-70
2023/03/10 00:31:39;;;;;;;;;;;6.50;99.90;;;;;;5090661;28;19954;-70
2023/03/10 00:34:05;;;;;;;;;;;6.60;99.90;;;;;;5090069;28;19938;-70
2023/03/10 00:36:31;;;;;;;;;;;6.60;99.90;;;;;;5090715;28;20497;-70
2023/03/10 00:38:59;;;;;;;;;;;6.60;99.90;;;;;;5091708;28;19916;-70
2023/03/10 00:41:26;;;;;;;;;;;6.60;99.90;;;;;;5084207;28;19920;-70
2023/03/10 00:43:52;;;;;;;;;;;6.70;99.90;;;;;;5069724;28;19916;-70
2023/03/10 00:46:18;;;;;;;;;;;6.60;99.90;;;;;;5069942;28;19912;-70
2023/03/10 00:48:44;;;;;;;;;;;6.70;99.90;;;;;;5070176;28;19909;-69
2023/03/10 00:51:10;;;;;;;;;;;6.70;99.90;;;;;;5069632;28;19916;-70
2023/03/10 00:53:36;;;;;;;;;;;6.70;99.90;;;;;;5087613;28;19919;-70
2023/03/10 00:56:02;;;;;;;;;;;6.70;99.90;;;;;;5091157;28;19919;-70
2023/03/10 00:58:28;;;;;;;;;;;6.70;99.90;;;;;;5089892;28;19912;-70
2023/03/10 01:00:53;;;;;;;;;;;6.80;99.90;;;;;;5089805;28;19969;-70
2023/03/10 01:03:19;;;;;;;;;;;6.80;99.90;;;;;;5088062;28;19912;-70
2023/03/10 01:05:46;;;;;;;;;;;6.80;99.90;;;;;;5089733;28;19944;-70
2023/03/10 01:08:11;;;;;;;;;;;6.80;99.90;;;;;;5088326;28;19934;-70
2023/03/10 01:10:37;;;;;;;;;;;6.90;99.90;;;;;;5088901;28;20381;-70
2023/03/10 01:13:02;;;;;;;;;;;6.80;99.90;;;;;;5108708;28;19967;-70
2023/03/10 01:15:28;;;;;;;;;;;6.90;99.90;;;;;;5088903;28;19981;-70
2023/03/10 01:17:53;;;;;;;;;;;6.90;99.90;;;;;;5089340;28;19928;-70
2023/03/10 01:20:19;;;;;;;;;;;6.90;99.90;;;;;;5088055;28;19926;-70
2023/03/10 01:22:45;;;;;;;;;;;6.90;99.90;;;;;;5090929;28;20299;-70
2023/03/10 01:25:14;;;;;;;;;;;7.00;99.90;;;;;;5110009;28;19912;-70
2023/03/10 01:27:40;;;;;;;;;;;6.90;99.90;;;;;;5109281;28;19938;-70
2023/03/10 01:30:06;;;;;;;;;;;7.00;99.90;;;;;;5089819;28;19938;-70
2023/03/10 01:32:32;;;;;;;;;;;7.00;99.90;;;;;;5089155;28;19912;-70
2023/03/10 01:34:57;;;;;;;;;;;7.00;99.90;;;;;;5089005;28;20688;-70
2023/03/10 01:37:23;;;;;;;;;;;7.00;99.90;;;;;;5087153;28;19939;-70
2023/03/10 01:39:49;;;;;;;;;;;7.00;99.90;;;;;;5088998;28;20428;-70
2023/03/10 01:42:14;;;;;;;;;;;7.00;99.90;;;;;;5074830;28;20407;-70
2023/03/10 01:44:40;;;;;;;;;;;7.00;99.90;;;;;;5074380;28;20012;-70
2023/03/10 01:47:05;;;;;;;;;;;7.00;99.90;;;;;;5089090;28;20276;-70
2023/03/10 01:49:34;;;;;;;;;;;7.00;99.90;;;;;;5088775;28;20350;-70
2023/03/10 01:52:03;;;;;;;;;;;7.00;99.90;;;;;;5073875;28;19927;-70
2023/03/10 01:54:32;;;;;;;;;;;7.10;99.90;;;;;;5101083;28;19912;-70
2023/03/10 01:56:58;;;;;;;;;;;7.00;99.90;;;;;;5109154;28;19950;-70
2023/03/10 01:59:24;;;;;;;;;;;7.10;99.90;;;;;;5109108;28;20385;-70
2023/03/10 02:01:50;;;;;;;;;;;7.10;99.90;;;;;;5097028;28;20609;-70
2023/03/10 02:04:22;;;;;;;;;;;7.10;99.90;;;;;;5088174;28;19992;-70
2023/03/10 02:06:48;;;;;;;;;;;7.10;99.90;;;;;;5081165;28;19917;-70
2023/03/10 02:09:15;;;;;;;;;;;7.10;99.90;;;;;;5078634;28;19919;-70
2023/03/10 02:11:41;;;;;;;;;;;7.10;99.90;;;;;;5086858;28;19966;-70
2023/03/10 02:14:07;;;;;;;;;;;7.10;99.90;;;;;;5095142;28;20003;-70
2023/03/10 02:16:33;;;;;;;;;;;7.10;99.90;;;;;;5087029;28;20085;-70
2023/03/10 02:18:58;;;;;;;;;;;7.10;99.90;;;;;;5089412;28;19919;-70
2023/03/10 02:21:24;;;;;;;;;;;7.10;99.90;;;;;;5088395;28;19908;-70
2023/03/10 02:24:08;;;;;;;;;;;7.10;99.90;;;;;;5098753;28;19950;-70
2023/03/10 02:26:33;;;;;;;;;;;7.10;99.90;;;;;;5095104;28;20392;-70
2023/03/10 02:29:00;;;;;;;;;;;7.10;99.90;;;;;;5088378;28;19908;-70
2023/03/10 02:31:26;;;;;;;;;;;7.10;99.90;;;;;;5088420;28;20564;-70
2023/03/10 02:33:52;;;;;;;;;;;7.10;99.90;;;;;;5088100;28;19912;-70
2023/03/10 02:36:22;;;;;;;;;;;7.10;99.90;;;;;;5087566;28;19965;-70
2023/03/10 02:38:47;;;;;;;;;;;7.10;99.90;;;;;;5088309;28;19920;-70
2023/03/10 02:41:24;;;;;;;;;;;7.10;99.90;;;;;;5083839;28;20343;-70
2023/03/10 02:43:50;;;;;;;;;;;7.10;99.90;;;;;;5067838;28;19953;-70
2023/03/10 02:46:15;;;;;;;;;;;7.10;99.90;;;;;;5088223;28;20330;-70
2023/03/10 02:48:41;;;;;;;;;;;7.10;99.90;;;;;;5088382;28;19924;-70
2023/03/10 02:51:12;;;;;;;;;;;7.10;99.90;;;;;;5087736;28;19908;-70
2023/03/10 02:53:37;;;;;;;;;;;7.10;99.90;;;;;;5096640;28;19907;-70
2023/03/10 02:56:03;;;;;;;;;;;7.10;99.90;;;;;;5108478;28;19919;-70
2023/03/10 02:58:29;;;;;;;;;;;7.10;99.90;;;;;;5098129;28;19915;-70
2023/03/10 03:00:55;;;;;;;;;;;7.10;99.90;;;;;;5098687;28;20343;-70
2023/03/10 03:03:20;;;;;;;;;;;7.20;99.90;;;;;;5093474;28;19937;-70
2023/03/10 03:05:46;;;;;;;;;;;7.10;99.90;;;;;;5087757;28;19919;-70
2023/03/10 03:08:12;;;;;;;;;;;7.10;99.90;;;;;;5087651;28;19912;-70
2023/03/10 03:10:38;;;;;;;;;;;7.10;99.90;;;;;;5087766;28;19920;-70
2023/03/10 03:13:03;;;;;;;;;;;7.20;99.90;;;;;;5068031;28;19912;-70
2023/03/10 03:15:29;;;;;;;;;;;7.20;99.90;;;;;;5085083;28;19957;-70
2023/03/10 03:17:57;;;;;;;;;;;7.20;99.90;;;;;;5090567;28;19941;-70
2023/03/10 03:20:23;;;;;;;;;;;7.20;99.90;;;;;;5086164;28;19912;-70
2023/03/10 03:22:48;;;;;;;;;;;7.20;99.90;;;;;;5089647;28;19926;-70
2023/03/10 03:25:16;;;;;;;;;;;7.20;99.90;;;;;;5107748;28;19970;-70
2023/03/10 03:27:41;;;;;;;;;;;7.20;99.90;;;;;;5108173;28;19915;-70
2023/03/10 03:30:08;;;;;;;;;;;7.20;99.90;;;;;;5106405;28;19919;-70
2023/03/10 03:32:34;;;;;;;;;;;7.20;99.90;;;;;;5107228;28;20003;-70
2023/03/10 03:35:00;;;;;;;;;;;7.30;99.90;;;;;;5110386;28;20060;-70
2023/03/10 03:37:26;;;;;;;;;;;7.20;99.90;;;;;;5111935;28;19951;-70
2023/03/10 03:39:51;;;;;;;;;;;7.20;99.90;;;;;;5098231;28;19912;-70
2023/03/10 03:42:17;;;;;;;;;;;7.20;99.90;;;;;;5078402;28;19919;-70
2023/03/10 03:44:42;;;;;;;;;;;7.20;99.90;;;;;;5071041;28;19916;-70
2023/03/10 03:47:09;;;;;;;;;;;7.30;99.90;;;;;;5071162;28;20028;-70
2023/03/10 03:49:35;;;;;;;;;;;7.20;99.90;;;;;;5108442;28;19951;-70
2023/03/10 03:52:01;;;;;;;;;;;7.30;99.90;;;;;;5096280;27;19916;-70
2023/03/10 03:54:26;;;;;;;;;;;7.20;99.90;;;;;;5106601;28;20397;-70
2023/03/10 03:56:52;;;;;;;;;;;7.20;99.90;;;;;;5110209;28;19908;-70
2023/03/10 03:59:17;;;;;;;;;;;7.30;99.90;;;;;;5111544;28;19912;-70
2023/03/10 04:01:43;;;;;;;;;;;7.30;99.90;;;;;;5104871;28;19912;-70
2023/03/10 04:04:08;;;;;;;;;;;7.30;99.90;;;;;;5112719;27;19927;-70
2023/03/10 04:06:34;;;;;;;;;;;7.30;99.90;;;;;;5110043;28;20037;-70
2023/03/10 04:08:59;;;;;;;;;;;7.30;99.90;;;;;;5104812;28;20480;-70
2023/03/10 04:11:25;;;;;;;;;;;7.30;99.90;;;;;;5084820;28;19927;-70
2023/03/10 04:13:50;;;;;;;;;;;7.20;99.90;;;;;;5070290;28;19913;-69
2023/03/10 04:16:16;;;;;;;;;;;7.20;99.90;;;;;;5090356;28;19912;-69
2023/03/10 04:18:41;;;;;;;;;;;7.20;99.90;;;;;;5090744;28;20417;-69
2023/03/10 04:21:07;;;;;;;;;;;7.30;99.90;;;;;;5091790;28;19973;-69
2023/03/10 04:23:32;;;;;;;;;;;7.30;99.90;;;;;;5090180;28;20035;-69
2023/03/10 04:25:58;;;;;;;;;;;7.30;99.90;;;;;;5101665;28;19934;-69
2023/03/10 04:28:23;;;;;;;;;;;7.30;99.90;;;;;;5103187;28;19931;-69
2023/03/10 04:30:49;;;;;;;;;;;7.30;99.90;;;;;;5101844;28;19908;-69
2023/03/10 04:33:14;;;;;;;;;;;7.30;99.90;;;;;;5102778;28;20014;-69
2023/03/10 04:35:41;;;;;;;;;;;7.30;99.90;;;;;;5103073;28;19916;-69
2023/03/10 04:38:06;;;;;;;;;;;7.30;99.90;;;;;;5101028;28;20557;-69
2023/03/10 04:40:32;;;;;;;;;;;7.30;99.90;;;;;;5100194;28;20097;-69
2023/03/10 04:42:57;;;;;;;;;;;7.20;99.90;;;;;;5102938;28;19943;-70
2023/03/10 04:45:23;;;;;;;;;;;7.20;99.90;;;;;;5101832;28;19962;-69
2023/03/10 04:47:48;;;;;;;;;;;7.20;99.90;;;;;;5095790;28;20435;-69
2023/03/10 04:50:16;;;;;;;;;;;7.20;99.90;;;;;;5102419;28;19962;-69
2023/03/10 04:52:43;;;;;;;;;;;7.20;99.90;;;;;;5101790;28;19991;-69
2023/03/10 04:55:09;;;;;;;;;;;7.20;99.90;;;;;;5100977;28;19916;-69
2023/03/10 04:57:34;;;;;;;;;;;7.20;99.90;;;;;;5089990;28;19916;-69
2023/03/10 05:00:00;;;;;;;;;;;7.20;99.90;;;;;;5089792;28;19961;-69
2023/03/10 05:02:25;;;;;;;;;;;7.30;99.90;;;;;;5089952;28;20019;-69
2023/03/10 05:04:51;;;;;;;;;;;7.20;99.90;;;;;;5089529;28;20503;-69
2023/03/10 05:07:16;;;;;;;;;;;7.20;99.90;;;;;;5089530;28;19923;-69
2023/03/10 05:09:42;;;;;;;;;;;7.20;99.90;;;;;;5089821;28;19977;-69
2023/03/10 05:12:09;;;;;;;;;;;7.20;99.90;;;;;;5101950;28;20372;-69
2023/03/10 05:14:35;;;;;;;;;;;7.20;99.90;;;;;;5092051;28;19916;-69
2023/03/10 05:17:00;;;;;;;;;;;7.20;99.90;;;;;;5091560;28;19919;-69
2023/03/10 05:19:27;;;;;;;;;;;7.20;99.90;;;;;;5089757;28;19916;-69
2023/03/10 05:21:53;;;;;;;;;;;7.20;99.90;;;;;;5089616;28;19912;-69
2023/03/10 05:24:19;;;;;;;;;;;7.20;99.90;;;;;;5104026;28;19912;-69
2023/03/10 05:26:44;;;;;;;;;;;7.20;99.90;;;;;;5110073;28;19953;-69
2023/03/10 05:29:10;;;;;;;;;;;7.20;99.90;;;;;;5097376;28;20412;-69
2023/03/10 05:31:35;;;;;;;;;;;7.20;99.90;;;;;;5089550;28;19919;-69
2023/03/10 05:34:01;;;;;;;;;;;7.20;99.90;;;;;;5089140;28;19916;-69
2023/03/10 05:36:26;;;;;;;;;;;7.20;99.90;;;;;;5089299;28;19912;-69
2023/03/10 05:38:52;;;;;;;;;;;7.20;99.90;;;;;;5087712;28;19912;-69
2023/03/10 05:41:17;;;;;;;;;;;7.20;99.90;;;;;;5084343;28;19916;-69
2023/03/10 05:43:43;;;;;;;;;;;7.20;99.90;;;;;;5068751;28;19912;-69
2023/03/10 05:46:09;;;;;;;;;;;7.20;99.90;;;;;;5085254;28;19951;-69
2023/03/10 05:48:35;;;;;;;;;;;7.20;99.90;;;;;;5089357;28;20384;-69
2023/03/10 05:51:02;;;;;;;;;;;7.20;99.90;;;;;;5082240;28;19951;-69
2023/03/10 05:53:28;;;;;;;;;;;7.10;99.90;;;;;;5084438;28;19912;-70
2023/03/10 05:55:54;;;;;;;;;;;7.20;99.90;;;;;;5108953;28;20250;-69
2023/03/10 05:58:20;;;;;;;;;;;7.10;99.90;;;;;;5090292;28;19919;-69
2023/03/10 06:00:46;;;;;;;;;;;7.10;99.90;;;;;;5088671;28;20357;-69
2023/03/10 06:03:11;;;;;;;;;;;7.10;99.90;;;;;;5089633;28;19908;-69
2023/03/10 06:05:37;;;;;;;;;;;7.10;99.90;;;;;;5088317;28;19908;-69
2023/03/10 06:08:02;;;;;;;;;;;7.10;99.90;;;;;;5088660;28;20439;-69
2023/03/10 06:10:28;;;;;;;;;;;7.10;99.90;;;;;;5088717;28;19912;-69
2023/03/10 06:12:54;;;;;;;;;;;7.00;99.90;;;;;;5070178;28;19917;-69
2023/03/10 06:15:20;;;;;;;;;;;7.10;99.90;;;;;;5085112;28;19999;-69
2023/03/10 06:17:45;;;;;;;;;;;7.10;99.90;;;;;;5087892;28;20046;-69
2023/03/10 06:20:11;;;;;;;;;;;7.10;99.90;;;;;;5088036;28;20491;-69
2023/03/10 06:22:36;;;;;;;;;;;7.10;99.90;;;;;;5088774;28;19912;-69
2023/03/10 06:25:02;;;;;;;;;;;7.10;99.90;;;;;;5108484;28;19916;-69
2023/03/10 06:27:28;;;;;;;;;;;7.10;99.90;;;;;;5108726;28;20434;-69
2023/03/10 06:29:54;;;;;;;;;;;7.10;99.90;;;;;;5095745;28;20398;-70
2023/03/10 06:32:19;;;;;;;;;;;7.10;99.90;;;;;;5087907;28;19969;-69
2023/03/10 06:34:45;;;;;;;;;;;7.10;99.90;;;;;;5091638;28;19961;-69
2023/03/10 06:37:10;;;;;;;;;;;7.10;99.90;;;;;;5108612;28;19920;-69
2023/03/10 06:39:39;;;;;;;;;;;7.10;99.90;;;;;;5097075;28;19912;-69
2023/03/10 06:42:05;;;;;;;;;;;7.10;99.90;;;;;;5076514;28;19915;-69
2023/03/10 06:44:30;;;;;;;;;;;7.10;99.90;;;;;;5067535;28;19908;-70
2023/03/10 06:46:56;;;;;;;;;;;7.20;99.90;;;;;;5067988;28;19922;-69
2023/03/10 06:49:22;;;;;;;;;;;7.10;99.90;;;;;;5067644;28;19947;-69
2023/03/10 06:51:47;;;;;;;;;;;7.10;99.90;;;;;;5081578;28;19954;-69
2023/03/10 06:54:13;;;;;;;;;;;7.20;99.90;;;;;;5101476;28;20580;-69
2023/03/10 06:56:38;;;;;;;;;;;7.20;99.90;;;;;;5108147;28;19912;-69
2023/03/10 06:59:04;;;;;;;;;;;7.20;99.90;;;;;;5108239;28;19908;-69
2023/03/10 07:01:30;;;;;;;;;;;7.20;99.90;;;;;;5107009;28;19960;-69
2023/03/10 07:03:56;;;;;;;;;;;7.20;99.90;;;;;;5107978;28;19912;-69
2023/03/10 07:06:22;;;;;;;;;;;7.20;99.90;;;;;;5108169;28;20581;-68
2023/03/10 07:08:48;;;;;;;;;;;7.30;99.90;;;;;;5104630;28;19970;-69
2023/03/10 07:11:14;;;;;;;;;;;7.20;99.90;;;;;;5087615;28;20003;-69
2023/03/10 07:13:40;;;;;;;;;;;7.30;99.90;;;;;;5071526;28;19908;-69
2023/03/10 07:16:06;;;;;;;;;;;7.30;99.90;;;;;;5088587;28;20262;-69
2023/03/10 07:18:31;;;;;;;;;;;7.30;99.90;;;;;;5091991;28;19916;-69
2023/03/10 07:20:57;;;;;;;;;;;7.30;99.90;;;;;;5091577;28;20406;-69
2023/03/10 07:23:23;;;;;;;;;;;7.30;99.90;;;;;;5098301;28;19912;-69
2023/03/10 07:25:53;;;;;;;;;;;7.30;99.90;;;;;;5105067;28;19916;-69
2023/03/10 07:28:18;;;;;;;;;;;7.30;99.90;;;;;;5091851;28;19916;-70
2023/03/10 07:30:44;;;;;;;;;;;7.30;99.90;;;;;;5112119;28;19907;-69
2023/03/10 07:33:10;;;;;;;;;;;7.40;99.90;;;;;;5110794;28;19953;-69
2023/03/10 07:35:35;;;;;;;;;;;7.40;99.90;;;;;;5111997;27;20010;-69
2023/03/10 07:38:01;;;;;;;;;;;7.40;99.90;;;;;;5112092;28;19989;-70
2023/03/10 07:40:26;;;;;;;;;;;7.50;99.90;;;;;;5093526;28;19908;-69
2023/03/10 07:42:53;;;;;;;;;;;7.50;99.90;;;;;;5079423;28;19920;-69
2023/03/10 07:45:19;;;;;;;;;;;7.50;99.90;;;;;;5111541;28;19919;-69
2023/03/10 07:47:45;;;;;;;;;;;7.50;99.90;;;;;;5111565;28;19916;-69
2023/03/10 07:50:10;;;;;;;;;;;7.50;99.90;;;;;;5110650;28;19930;-69
2023/03/10 07:52:36;;;;;;;;;;;7.60;99.90;;;;;;5090935;28;20444;-69
2023/03/10 07:55:02;;;;;;;;;;;7.60;99.90;;;;;;5111379;28;19911;-69
2023/03/10 07:57:27;;;;;;;;;;;7.60;99.90;;;;;;5111548;28;19943;-70
2023/03/10 07:59:53;;;;;;;;;;;7.60;99.90;;;;;;5103355;28;19947;-70
2023/03/10 08:02:18;;;;;;;;;;;7.60;99.90;;;;;;5091092;28;19912;-69
2023/03/10 08:04:44;;;;;;;;;;;7.70;99.90;;;;;;5090707;28;20015;-69
2023/03/10 08:07:09;;;;;;;;;;;7.70;99.90;;;;;;5090963;28;19916;-70
2023/03/10 08:09:35;;;;;;;;;;;7.60;99.90;;;;;;5091065;28;19916;-70
2023/03/10 08:12:01;;;;;;;;;;;7.70;99.90;;;;;;5080005;28;20427;-69
2023/03/10 08:14:27;;;;;;;;;;;7.70;99.90;;;;;;5080090;28;19912;-70
2023/03/10 08:16:55;;;;;;;;;;;7.70;99.90;;;;;;5097743;28;20330;-70
2023/03/10 08:19:21;;;;;;;;;;;7.70;99.90;;;;;;5110941;28;19915;-70
2023/03/10 08:21:46;;;;;;;;;;;7.80;99.90;;;;;;5111290;28;19914;-70
2023/03/10 08:24:12;;;;;;;;;;;7.70;99.90;;;;;;5109766;28;19911;-70
2023/03/10 08:26:38;;;;;;;;;;;7.80;99.90;;;;;;5110863;28;20573;-70
2023/03/10 08:29:03;;;;;;;;;;;7.80;99.90;;;;;;5110952;28;19930;-70
2023/03/10 08:31:29;;;;;;;;;;;7.80;99.90;;;;;;5111021;28;20374;-70
2023/03/10 08:33:55;;;;;;;;;;;7.80;99.90;;;;;;5109946;28;20612;-70
2023/03/10 08:36:22;;;;;;;;;;;7.90;99.90;;;;;;5096666;28;19995;-69
2023/03/10 08:38:48;;;;;;;;;;;7.80;99.90;;;;;;5090307;28;19919;-70
2023/03/10 08:41:19;;;;;;;;;;;7.90;99.90;;;;;;5085849;28;19956;-70
2023/03/10 08:43:45;;;;;;;;;;;7.90;99.90;;;;;;5069814;28;19996;-70
2023/03/10 08:46:11;;;;;;;;;;;8.00;99.90;;;;;;5069907;28;19999;-70
2023/03/10 08:48:37;;;;;;;;;;;8.00;99.90;;;;;;5070012;28;20019;-69
2023/03/10 08:51:03;;;;;;;;;;;8.10;99.90;;;;;;5103415;27;20421;-70
2023/03/10 08:53:29;;;;;;;;;;;8.10;99.90;;;;;;5085828;28;20732;-70
2023/03/10 08:55:54;;;;;;;;;;;8.10;99.90;;;;;;5110530;27;19994;-69
2023/03/10 08:58:20;;;;;;;;;;;8.20;99.90;;;;;;5110637;28;19969;-70
2023/03/10 09:00:45;;;;;;;;;;;8.20;99.90;;;;;;5110079;28;20548;-70
2023/03/10 09:03:11;;;;;;;;;;;8.20;99.90;;;;;;5110191;28;20387;-70
2023/03/10 09:05:37;;;;;;;;;;;8.20;99.90;;;;;;5110182;27;19912;-70
2023/03/10 09:08:03;;;;;;;;;;;8.20;99.90;;;;;;5091606;28;19931;-70
2023/03/10 09:10:28;;;;;;;;;;;8.20;99.90;;;;;;5090009;28;19943;-70
2023/03/10 09:12:54;;;;;;;;;;;8.30;99.90;;;;;;5070043;28;20319;-70
2023/03/10 09:15:20;;;;;;;;;;;8.30;99.90;;;;;;5086338;28;19935;-70
2023/03/10 09:17:46;;;;;;;;;;;8.30;99.90;;;;;;5089127;28;20254;-70
2023/03/10 09:20:13;;;;;;;;;;;8.30;99.90;;;;;;5089424;28;19915;-70
2023/03/10 09:22:39;;;;;;;;;;;8.40;99.90;;;;;;5090691;28;19920;-70
2023/03/10 09:25:04;;;;;;;;;;;8.30;99.90;;;;;;5109963;28;19918;-70
2023/03/10 09:27:30;;;;;;;;;;;8.30;99.90;;;;;;5108404;28;20288;-70
2023/03/10 09:29:55;;;;;;;;;;;8.40;99.90;;;;;;5109007;28;20008;-70
2023/03/10 09:32:21;;;;;;;;;;;8.40;99.90;;;;;;5109022;28;19912;-70
2023/03/10 09:34:46;;;;;;;;;;;8.40;99.90;;;;;;5109219;28;19922;-70
2023/03/10 09:37:12;;;;;;;;;;;8.40;99.90;;;;;;5109697;28;20560;-70
2023/03/10 09:39:37;;;;;;;;;;;8.40;99.90;;;;;;5097799;28;19951;-70
2023/03/10 09:42:19;;;;;;;;;;;8.40;99.90;;;;;;5077987;28;19916;-70
2023/03/10 09:44:56;;;;;;;;;;;8.50;99.90;;;;;;5083889;28;19919;-70
2023/03/10 09:47:33;;;;;;;;;;;8.50;99.90;;;;;;5109321;28;19924;-71
2023/03/10 09:50:11;;;;;;;;;;;8.60;99.90;;;;;;5109297;28;20048;-70
2023/03/10 09:52:50;;;;;;;;;;;8.60;99.90;;;;;;5070571;28;20380;-70
2023/03/10 09:55:21;;;;;;;;;;;8.70;99.90;;;;;;5109229;28;19934;-70
2023/03/10 09:57:48;;;;;;;;;;;8.70;99.90;;;;;;5096258;27;19912;-70
2023/03/10 10:00:19;;;;;;;;;;;8.80;99.90;;;;;;5100911;28;20514;-70
2023/03/10 10:02:46;;;;;;;;;;;8.80;99.90;;;;;;5107720;28;19907;-70
2023/03/10 10:05:16;;;;;;;;;;;8.90;99.90;;;;;;5108942;28;19915;-70
2023/03/10 10:07:45;;;;;;;;;;;8.90;99.90;;;;;;5107574;28;19916;-70
2023/03/10 10:10:16;;;;;;;;;;;8.90;99.90;;;;;;5092856;28;19959;-70
2023/03/10 10:12:43;;;;;;;;;;;9.00;99.90;;;;;;5072031;28;19913;-71
2023/03/10 10:15:16;;;;;;;;;;;9.00;99.90;;;;;;5078161;28;19920;-70
2023/03/10 10:17:48;;;;;;;;;;;9.00;99.90;;;;;;5089421;28;19920;-70
2023/03/10 10:20:26;;;;;;;;;;;9.10;99.90;;;;;;5086982;28;19997;-70
2023/03/10 10:22:51;;;;;;;;;;;9.10;99.90;;;;;;5085663;28;20014;-70
2023/03/10 10:25:19;;;;;;;;;;;9.10;99.90;;;;;;5093432;28;20007;-70
2023/03/10 10:27:46;;;;;;;;;;;9.10;99.90;;;;;;5098855;28;20308;-70
2023/03/10 10:30:30;;;;;;;;;;;9.10;99.90;;;;;;5108536;28;19934;-70
2023/03/10 10:32:57;;;;;;;;;;;9.20;99.90;;;;;;5093086;28;19916;-70
2023/03/10 10:35:24;;;;;;;;;;;9.30;99.90;;;;;;5088280;28;19912;-70
2023/03/10 10:38:05;;;;;;;;;;;9.30;99.90;;;;;;5088166;28;19916;-70
2023/03/10 10:40:35;;;;;;;;;;;9.40;99.90;;;;;;5088380;28;20266;-70
2023/03/10 10:43:04;;;;;;;;;;;9.40;99.90;;;;;;5069094;28;19962;-70
2023/03/10 10:45:33;;;;;;;;;;;9.40;99.90;;;;;;5098421;28;19912;-70
2023/03/10 10:47:58;;;;;;;;;;;9.50;99.90;;;;;;5099366;28;19964;-70
2023/03/10 10:50:25;;;;;;;;;;;9.50;99.90;;;;;;5092594;28;19983;-70
2023/03/10 10:53:11;;;;;;;;;;;9.60;99.90;;;;;;5073330;28;20289;-70
2023/03/10 10:55:37;;;;;;;;;;;9.50;99.90;;;;;;5108278;28;19912;-70
2023/03/10 10:58:05;;;;;;;;;;;9.50;99.90;;;;;;5108506;28;20398;-70
2023/03/10 11:00:30;;;;;;;;;;;9.50;99.90;;;;;;5108356;28;19918;-70
2023/03/10 11:02:56;;;;;;;;;;;9.50;99.90;;;;;;5108380;28;19908;-70
2023/03/10 11:05:22;;;;;;;;;;;9.60;99.90;;;;;;5107872;28;19908;-70
2023/03/10 11:07:49;;;;;;;;;;;9.60;99.90;;;;;;5107560;28;19926;-70
2023/03/10 11:10:16;;;;;;;;;;;9.80;99.90;;;;;;5091213;28;20597;-70
2023/03/10 11:12:42;;;;;;;;;;;9.80;99.90;;;;;;5071134;28;19915;-71
2023/03/10 11:15:13;;;;;;;;;;;9.90;99.90;;;;;;5077395;28;19938;-70
2023/03/10 11:17:38;;;;;;;;;;;9.90;99.90;;;;;;5087524;28;19920;-70
2023/03/10 11:20:05;;;;;;;;;;;9.90;99.90;;;;;;5087652;28;19915;-70
2023/03/10 11:22:49;;;;;;;;;;;9.90;99.90;;;;;;5089468;28;20436;-70
2023/03/10 11:25:22;;;;;;;;;;;9.90;99.90;;;;;;5066670;28;20694;-70
2023/03/10 11:27:53;;;;;;;;;;;9.90;99.90;;;;;;5066630;28;19917;-70
2023/03/10 11:30:19;;;;;;;;;;;9.90;99.90;;;;;;5066710;28;19999;-71
2023/03/10 11:33:03;;;;;;;;;;;10.00;99.90;;;;;;5066646;28;20000;-71
2023/03/10 11:35:35;;;;;;;;;;;10.00;99.90;;;;;;5066129;28;19920;-70
2023/03/10 11:38:19;;;;;;;;;;;10.00;99.90;;;;;;5066531;28;19909;-70
2023/03/10 11:40:47;;;;;;;;;;;10.00;99.90;;;;;;5085350;28;19916;-70
2023/03/10 11:43:18;;;;;;;;;;;10.10;99.90;;;;;;5098628;28;20364;-70
2023/03/10 11:45:53;;;;;;;;;;;10.10;99.90;;;;;;5084225;28;19951;-70
2023/03/10 11:48:21;;;;;;;;;;;10.10;99.90;;;;;;5086690;28;20038;-70
2023/03/10 11:50:47;;;;;;;;;;;10.10;99.90;;;;;;5086145;28;19938;-69
2023/03/10 11:53:20;;;;;;;;;;;10.00;99.90;;;;;;5092510;28;19912;-70
2023/03/10 11:55:47;;;;;;;;;;;10.00;99.90;;;;;;5107639;28;19999;-69
2023/03/10 11:58:31;;;;;;;;;;;10.00;99.90;;;;;;5090438;28;19918;-70
2023/03/10 12:00:57;;;;;;;;;;;10.00;99.90;;;;;;5090292;28;19922;-70
2023/03/10 12:03:22;;;;;;;;;;;10.00;99.90;;;;;;5090177;28;19912;-70
2023/03/10 12:05:53;;;;;;;;;;;9.90;99.90;;;;;;5090112;28;20741;-70
2023/03/10 12:08:19;;;;;;;;;;;9.90;99.90;;;;;;5090081;28;20607;-70
2023/03/10 12:10:45;;;;;;;;;;;9.90;99.90;;;;;;5090051;28;19995;-70
2023/03/10 12:13:20;;;;;;;;;;;9.90;99.90;;;;;;5103342;27;20058;-70
2023/03/10 12:15:46;;;;;;;;;;;9.90;99.90;;;;;;5085308;28;19959;-70
2023/03/10 12:18:12;;;;;;;;;;;9.90;99.90;;;;;;5089833;28;20424;-70
2023/03/10 12:20:37;;;;;;;;;;;9.90;99.90;;;;;;5090086;28;19912;-70
2023/03/10 12:23:09;;;;;;;;;;;9.80;99.90;;;;;;5095023;28;19915;-70
2023/03/10 12:25:37;;;;;;;;;;;9.80;99.90;;;;;;5101786;27;19908;-70
2023/03/10 12:28:14;;;;;;;;;;;9.80;99.90;;;;;;5090012;28;19920;-70
2023/03/10 12:30:50;;;;;;;;;;;9.80;99.90;;;;;;5089715;28;19915;-70
2023/03/10 12:33:36;;;;;;;;;;;9.80;99.90;;;;;;5089754;28;19997;-70
2023/03/10 12:36:19;;;;;;;;;;;9.70;99.90;;;;;;5089974;28;19974;-71
2023/03/10 12:38:48;;;;;;;;;;;9.70;99.90;;;;;;5089197;28;19923;-70
2023/03/10 12:41:33;;;;;;;;;;;9.70;99.90;;;;;;5085157;28;20550;-70
2023/03/10 12:44:19;;;;;;;;;;;9.70;99.90;;;;;;5069109;28;19913;-71
2023/03/10 12:46:49;;;;;;;;;;;9.70;99.90;;;;;;5071533;28;20007;-70
2023/03/10 12:49:21;;;;;;;;;;;9.70;99.90;;;;;;5102503;28;19919;-70
2023/03/10 12:51:50;;;;;;;;;;;9.70;99.90;;;;;;5086507;28;19912;-70
2023/03/10 12:54:22;;;;;;;;;;;9.70;99.90;;;;;;5109948;28;19915;-70
2023/03/10 12:56:56;;;;;;;;;;;9.70;99.90;;;;;;5096440;28;19951;-70
2023/03/10 12:59:29;;;;;;;;;;;9.70;99.90;;;;;;5090100;28;19923;-70
2023/03/10 13:01:56;;;;;;;;;;;9.70;99.90;;;;;;5088444;28;20569;-70
2023/03/10 13:04:22;;;;;;;;;;;9.70;99.90;;;;;;5089859;28;19912;-70
2023/03/10 13:06:47;;;;;;;;;;;9.70;99.90;;;;;;5121835;27;19919;-70
2023/03/10 13:09:31;;;;;;;;;;;9.70;99.90;;;;;;5089449;28;19919;-70
2023/03/10 13:12:27;;;;;;;;;;;9.70;99.90;;;;;;5093631;28;19912;-70
2023/03/10 13:14:55;;;;;;;;;;;9.70;99.90;;;;;;5078966;28;20351;-70
2023/03/10 13:17:20;;;;;;;;;;;9.70;99.90;;;;;;5089420;28;20007;-70
2023/03/10 13:19:55;;;;;;;;;;;9.70;99.90;;;;;;5089710;28;20010;-70
2023/03/10 13:22:21;;;;;;;;;;;9.70;99.90;;;;;;5089933;28;20022;-70
2023/03/10 13:24:55;;;;;;;;;;;9.70;99.90;;;;;;5108629;28;20420;-70
2023/03/10 13:27:22;;;;;;;;;;;9.70;99.90;;;;;;5109805;28;19915;-70
2023/03/10 13:29:55;;;;;;;;;;;9.70;99.90;;;;;;5105316;28;19922;-70
2023/03/10 13:32:23;;;;;;;;;;;9.70;99.90;;;;;;5092800;28;21731;-70
2023/03/10 13:34:49;;;;;;;;;;;9.70;99.90;;;;;;5098178;28;19975;-70
2023/03/10 13:37:15;;;;;;;;;;;9.60;99.90;;;;;;5101002;28;19912;-70
2023/03/10 13:39:40;;;;;;;;;;;9.60;99.90;;;;;;5097743;28;19913;-70
2023/03/10 13:42:25;;;;;;;;;;;9.60;99.90;;;;;;5087709;28;19969;-70
2023/03/10 13:44:51;;;;;;;;;;;9.60;99.90;;;;;;5089055;28;19918;-70
2023/03/10 13:47:21;;;;;;;;;;;9.60;99.90;;;;;;5089227;28;19958;-70
2023/03/10 13:49:49;;;;;;;;;;;9.60;99.90;;;;;;5087652;28;19912;-70
2023/03/10 13:52:16;;;;;;;;;;;9.50;99.90;;;;;;5072161;28;19916;-70
2023/03/10 13:54:41;;;;;;;;;;;9.50;99.90;;;;;;5105732;28;19911;-70
2023/03/10 13:57:10;;;;;;;;;;;9.50;99.90;;;;;;5108684;28;19912;-70
2023/03/10 13:59:36;;;;;;;;;;;9.50;99.90;;;;;;5107874;28;19923;-70
2023/03/10 14:02:02;;;;;;;;;;;9.50;99.90;;;;;;5109271;28;19916;-70
2023/03/10 14:04:43;;;;;;;;;;;9.50;99.90;;;;;;5109279;28;19996;-71
2023/03/10 14:07:11;;;;;;;;;;;9.50;99.90;;;;;;5109392;28;19916;-70
2023/03/10 14:09:37;;;;;;;;;;;9.50;99.90;;;;;;5097564;28;19913;-70
2023/03/10 14:12:02;;;;;;;;;;;9.50;99.90;;;;;;5089933;28;19915;-70
2023/03/10 14:14:32;;;;;;;;;;;9.50;99.90;;;;;;5097932;28;20014;-70
2023/03/10 14:17:02;;;;;;;;;;;9.50;99.90;;;;;;5088000;28;19964;-70
2023/03/10 14:19:35;;;;;;;;;;;9.50;99.90;;;;;;5087059;28;20030;-70
2023/03/10 14:22:00;;;;;;;;;;;9.50;99.90;;;;;;5107838;28;19967;-70
2023/03/10 14:24:26;;;;;;;;;;;9.40;99.90;;;;;;5108804;28;19916;-70
2023/03/10 14:26:52;;;;;;;;;;;9.40;99.90;;;;;;5108856;28;19911;-70
2023/03/10 14:29:18;;;;;;;;;;;9.40;99.90;;;;;;5108111;28;19912;-70